Terminal Aerodrome Forecast
Issued by NWS Memphis, TN

Home | Current Version | Previous Version | Text Only | Print | Product List | Glossary On
Versions: 1 2 3 4 5 6 7 8 9 10 11 12 13 14 15
000
FTUS44 KMEG 251730
TAFMKL
TAF
KMKL 251730Z 2518/2618 23015G25KT P6SM BKN020
     FM251900 24015G25KT P6SM SCT025
     FM260000 26008KT P6SM SKC
     FM261000 33008KT P6SM BKN008
      TEMPO 2610/2614 OVC004
     FM261600 36008KT P6SM BKN015=

USA.gov is the U.S. government's official web portal to all federal, state and local government web resources and services.